Etusivu
METAR-TAF:

METAR-TAF

Lentoasemat :

Nakashibetsu, Japani

Leveyspiiri: 43-34N, Pituuspiiri: 144-58E, korkeus merenpinnasta: 66 m

Tämänhetkinen sää

Tämä raportti tehtiin 12 tuntia ja 25 minuuttia sitten, kello 09.00 UTC
Tuuli 6 kn etelästä/lounaasta
Lämpötila 15°C
Kosteus 94%
Ilmanpaine 1014 hPa
Näkyvyys: 4500 m
Muutamia pilviä 300 ft:n korkeudessa
Hajanaisia pilviä 900 ft:n korkeudessa
Hajonneita pilviä 1200 ft:n korkeudessa
heikkoja vesikuuroja, utua

METAR: RJCN 200900Z 21006KT 4500 -SHRA BR FEW003 SCT009 BKN012 15/14 Q1014

Aika: 06:25 (21:25 UTC)


TAF: puuttuu

Säähavainnot ja -ennusteet yli 4000 lentoasemalta (METAR- ja TAF-raportit).

Käytössä olevat sääasemat on merkitty karttaan keltaisilla ja punaisilla pisteillä.

Aseta hiiri pisteen päälle nähdäksesi sääaseman nimen.

Klikkaa sitten nähdäksesi säähavainnot ja -ennusteet.

Kartan vaihtaminen: klikkaa mustalla rastilla varustettuja vihreitä pisteitä, niin voit zoomata sisään; viivalla varustettua vihreää pistettä, niin voit zoomata ulos tai vihreitä nuolia, niin pääset viereisille kartoille.


METAR-TAF: